Weather Data

Pearl Creek Farm: 8878 N Farm Road 75, Walnut Grove MO 65770

<== Previous Day (Thursday 03 Jan 2008) | Next Day (Saturday 05 Jan 2008) ==>

Summary Precipitation Data For Friday 04 January 2008

ElementValueUnits
PrecipitationT
Notes(none)
SourceSpringfield-Branson National Airport (SGF)

Summary Temperature Data For Friday 04 January 2008

ElementValueUnits
High Temperature50 oF
Low Temperature25 oF
Average Temperature38 oF
High Humidity66 %
Low Humidity51 %
Average Humidity56 %
SourceSpringfield-Branson National Airport (SGF)

Detail Temperature Data For Friday 04 January 2008

Date / TimeTemp (F)RH (%)Dew Pt (F)Report Date / TimeSource
2008-01-04 21:52:00 43 63 31.0 2017-12-29 19:14:24.89625 Springfield-Branson National Airport (SGF)
2008-01-04 20:52:00 44 63 32.0 2017-12-29 19:14:24.89625 Springfield-Branson National Airport (SGF)
2008-01-04 22:52:00 44 63 32.0 2017-12-29 19:14:24.89625 Springfield-Branson National Airport (SGF)
2008-01-04 23:52:00 46 66 35.0 2017-12-29 19:14:24.89625 Springfield-Branson National Airport (SGF)
2008-01-04 00:52:00 26 53 11.0 2017-12-29 19:14:24.89625 Springfield-Branson National Airport (SGF)
2008-01-04 01:52:00 26 53 11.0 2017-12-29 19:14:24.89625 Springfield-Branson National Airport (SGF)
2008-01-04 02:52:00 26 53 11.0 2017-12-29 19:14:24.89625 Springfield-Branson National Airport (SGF)
2008-01-04 03:52:00 25 55 11.0 2017-12-29 19:14:24.89625 Springfield-Branson National Airport (SGF)
2008-01-04 04:52:00 26 53 11.0 2017-12-29 19:14:24.89625 Springfield-Branson National Airport (SGF)
2008-01-04 05:52:00 27 51 11.0 2017-12-29 19:14:24.89625 Springfield-Branson National Airport (SGF)
2008-01-04 06:52:00 27 53 12.0 2017-12-29 19:14:24.89625 Springfield-Branson National Airport (SGF)
2008-01-04 07:52:00 28 53 13.0 2017-12-29 19:14:24.89625 Springfield-Branson National Airport (SGF)
2008-01-04 08:52:00 31 52 15.0 2017-12-29 19:14:24.89625 Springfield-Branson National Airport (SGF)
2008-01-04 09:52:00 35 52 19.0 2017-12-29 19:14:24.89625 Springfield-Branson National Airport (SGF)
2008-01-04 10:52:00 37 52 21.0 2017-12-29 19:14:24.89625 Springfield-Branson National Airport (SGF)
2008-01-04 11:52:00 43 51 26.0 2017-12-29 19:14:24.89625 Springfield-Branson National Airport (SGF)
2008-01-04 12:52:00 48 52 31.0 2017-12-29 19:14:24.89625 Springfield-Branson National Airport (SGF)
2008-01-04 13:52:00 50 52 33.0 2017-12-29 19:14:24.89625 Springfield-Branson National Airport (SGF)
2008-01-04 14:52:00 50 52 33.0 2017-12-29 19:14:24.89625 Springfield-Branson National Airport (SGF)
2008-01-04 15:52:00 50 54 34.0 2017-12-29 19:14:24.89625 Springfield-Branson National Airport (SGF)
2008-01-04 16:52:00 48 56 33.0 2017-12-29 19:14:24.89625 Springfield-Branson National Airport (SGF)
2008-01-04 17:52:00 46 61 33.0 2017-12-29 19:14:24.89625 Springfield-Branson National Airport (SGF)
2008-01-04 18:52:00 45 61 32.0 2017-12-29 19:14:24.89625 Springfield-Branson National Airport (SGF)
2008-01-04 19:52:00 44 63 32.0 2017-12-29 19:14:24.89625 Springfield-Branson National Airport (SGF)

A total of 24 rows are displayed.